sensor_id;sensor_type;location;lat;lon;timestamp;P1;durP1;ratioP1;P2;durP2;ratioP2
11086;SDS011;5597;47.588;9.642;2022-10-31T00:00:41;10.23;;;9.03;;
11086;SDS011;5597;47.588;9.642;2022-10-31T00:03:07;11.40;;;9.27;;
11086;SDS011;5597;47.588;9.642;2022-10-31T00:05:32;11.87;;;9.53;;
11086;SDS011;5597;47.588;9.642;2022-10-31T00:07:58;11.57;;;10.47;;
11086;SDS011;5597;47.588;9.642;2022-10-31T00:10:24;11.17;;;10.07;;
11086;SDS011;5597;47.588;9.642;2022-10-31T00:12:49;15.67;;;11.10;;
11086;SDS011;5597;47.588;9.642;2022-10-31T00:15:16;12.20;;;9.90;;
11086;SDS011;5597;47.588;9.642;2022-10-31T00:17:41;12.53;;;10.00;;
11086;SDS011;5597;47.588;9.642;2022-10-31T00:20:07;10.40;;;9.30;;
11086;SDS011;5597;47.588;9.642;2022-10-31T00:22:33;9.87;;;8.87;;
11086;SDS011;5597;47.588;9.642;2022-10-31T00:24:59;10.80;;;9.70;;
11086;SDS011;5597;47.588;9.642;2022-10-31T00:27:24;10.10;;;8.83;;
11086;SDS011;5597;47.588;9.642;2022-10-31T00:29:50;10.57;;;9.47;;
11086;SDS011;5597;47.588;9.642;2022-10-31T00:32:16;10.83;;;9.33;;
11086;SDS011;5597;47.588;9.642;2022-10-31T00:34:41;11.07;;;8.80;;
11086;SDS011;5597;47.588;9.642;2022-10-31T00:37:07;10.57;;;8.90;;
11086;SDS011;5597;47.588;9.642;2022-10-31T00:39:32;12.47;;;10.33;;
11086;SDS011;5597;47.588;9.642;2022-10-31T00:41:58;12.10;;;9.53;;
11086;SDS011;5597;47.588;9.642;2022-10-31T00:44:24;11.03;;;9.83;;
11086;SDS011;5597;47.588;9.642;2022-10-31T00:46:50;10.27;;;9.23;;
11086;SDS011;5597;47.588;9.642;2022-10-31T00:49:15;9.80;;;8.80;;
11086;SDS011;5597;47.588;9.642;2022-10-31T00:51:41;10.20;;;9.10;;
11086;SDS011;5597;47.588;9.642;2022-10-31T00:54:07;9.50;;;8.50;;
11086;SDS011;5597;47.588;9.642;2022-10-31T00:56:32;10.50;;;9.47;;
11086;SDS011;5597;47.588;9.642;2022-10-31T00:58:58;10.00;;;9.00;;
11086;SDS011;5597;47.588;9.642;2022-10-31T01:01:23;9.80;;;8.83;;
11086;SDS011;5597;47.588;9.642;2022-10-31T01:03:49;11.20;;;10.00;;
11086;SDS011;5597;47.588;9.642;2022-10-31T01:06:14;10.53;;;9.43;;
11086;SDS011;5597;47.588;9.642;2022-10-31T01:08:40;10.73;;;9.63;;
11086;SDS011;5597;47.588;9.642;2022-10-31T01:11:11;11.63;;;10.10;;
11086;SDS011;5597;47.588;9.642;2022-10-31T01:13:39;9.53;;;8.53;;
11086;SDS011;5597;47.588;9.642;2022-10-31T01:16:05;10.63;;;9.37;;
11086;SDS011;5597;47.588;9.642;2022-10-31T01:18:32;11.27;;;9.17;;
11086;SDS011;5597;47.588;9.642;2022-10-31T01:23:26;10.83;;;9.70;;
11086;SDS011;5597;47.588;9.642;2022-10-31T01:26:02;9.20;;;8.30;;
11086;SDS011;5597;47.588;9.642;2022-10-31T01:28:34;9.70;;;8.67;;
11086;SDS011;5597;47.588;9.642;2022-10-31T01:31:05;9.17;;;8.37;;
11086;SDS011;5597;47.588;9.642;2022-10-31T01:33:32;8.77;;;7.87;;
11086;SDS011;5597;47.588;9.642;2022-10-31T01:35:59;9.37;;;8.47;;
11086;SDS011;5597;47.588;9.642;2022-10-31T01:38:25;9.87;;;8.87;;
11086;SDS011;5597;47.588;9.642;2022-10-31T01:40:50;9.37;;;8.47;;
11086;SDS011;5597;47.588;9.642;2022-10-31T01:43:17;9.80;;;8.80;;
11086;SDS011;5597;47.588;9.642;2022-10-31T01:45:43;9.60;;;8.70;;
11086;SDS011;5597;47.588;9.642;2022-10-31T01:48:15;11.37;;;9.73;;
11086;SDS011;5597;47.588;9.642;2022-10-31T01:50:44;11.30;;;10.10;;
11086;SDS011;5597;47.588;9.642;2022-10-31T01:53:14;9.67;;;8.67;;
11086;SDS011;5597;47.588;9.642;2022-10-31T01:55:41;11.57;;;10.37;;
11086;SDS011;5597;47.588;9.642;2022-10-31T01:58:10;10.90;;;9.80;;
11086;SDS011;5597;47.588;9.642;2022-10-31T02:00:41;9.93;;;8.83;;
11086;SDS011;5597;47.588;9.642;2022-10-31T02:03:10;12.00;;;10.70;;
11086;SDS011;5597;47.588;9.642;2022-10-31T02:05:36;11.63;;;10.23;;
11086;SDS011;5597;47.588;9.642;2022-10-31T02:08:11;11.90;;;10.70;;
11086;SDS011;5597;47.588;9.642;2022-10-31T02:10:44;11.87;;;10.47;;
11086;SDS011;5597;47.588;9.642;2022-10-31T02:13:10;11.50;;;10.30;;
11086;SDS011;5597;47.588;9.642;2022-10-31T02:15:37;11.00;;;9.60;;
11086;SDS011;5597;47.588;9.642;2022-10-31T02:18:04;12.60;;;11.30;;
11086;SDS011;5597;47.588;9.642;2022-10-31T02:20:42;10.80;;;9.17;;
11086;SDS011;5597;47.588;9.642;2022-10-31T02:33:50;10.10;;;8.90;;
11086;SDS011;5597;47.588;9.642;2022-10-31T02:36:35;9.03;;;7.90;;
11086;SDS011;5597;47.588;9.642;2022-10-31T02:39:24;8.40;;;7.60;;
11086;SDS011;5597;47.588;9.642;2022-10-31T02:42:05;8.27;;;7.47;;
11086;SDS011;5597;47.588;9.642;2022-10-31T02:44:36;8.03;;;7.27;;
11086;SDS011;5597;47.588;9.642;2022-10-31T02:47:14;6.40;;;5.90;;
11086;SDS011;5597;47.588;9.642;2022-10-31T02:52:29;5.50;;;5.00;;
11086;SDS011;5597;47.588;9.642;2022-10-31T02:54:56;6.10;;;5.60;;
11086;SDS011;5597;47.588;9.642;2022-10-31T02:57:25;5.57;;;5.07;;
11086;SDS011;5597;47.588;9.642;2022-10-31T03:00:01;5.27;;;4.87;;
11086;SDS011;5597;47.588;9.642;2022-10-31T03:08:04;5.93;;;5.33;;
11086;SDS011;5597;47.588;9.642;2022-10-31T03:16:12;6.83;;;6.13;;
11086;SDS011;5597;47.588;9.642;2022-10-31T03:18:59;6.30;;;5.70;;
11086;SDS011;5597;47.588;9.642;2022-10-31T03:21:30;5.93;;;5.43;;
11086;SDS011;5597;47.588;9.642;2022-10-31T03:23:58;5.57;;;5.17;;
11086;SDS011;5597;47.588;9.642;2022-10-31T03:26:25;6.17;;;5.57;;
11086;SDS011;5597;47.588;9.642;2022-10-31T03:28:55;6.57;;;5.97;;
11086;SDS011;5597;47.588;9.642;2022-10-31T03:31:27;7.27;;;6.57;;
11086;SDS011;5597;47.588;9.642;2022-10-31T03:33:56;7.47;;;6.70;;
11086;SDS011;5597;47.588;9.642;2022-10-31T03:36:24;8.27;;;7.43;;
11086;SDS011;5597;47.588;9.642;2022-10-31T03:38:53;7.77;;;6.97;;
11086;SDS011;5597;47.588;9.642;2022-10-31T03:41:21;7.70;;;7.00;;
11086;SDS011;5597;47.588;9.642;2022-10-31T03:43:59;7.50;;;6.80;;
11086;SDS011;5597;47.588;9.642;2022-10-31T03:46:29;6.93;;;6.27;;
11086;SDS011;5597;47.588;9.642;2022-10-31T03:48:55;7.27;;;6.50;;
11086;SDS011;5597;47.588;9.642;2022-10-31T03:51:44;6.97;;;6.33;;
11086;SDS011;5597;47.588;9.642;2022-10-31T03:54:17;7.13;;;6.43;;
11086;SDS011;5597;47.588;9.642;2022-10-31T03:57:14;9.57;;;7.33;;
11086;SDS011;5597;47.588;9.642;2022-10-31T03:59:47;8.83;;;7.30;;
11086;SDS011;5597;47.588;9.642;2022-10-31T04:02:20;8.83;;;7.80;;
11086;SDS011;5597;47.588;9.642;2022-10-31T04:04:50;9.40;;;7.70;;
11086;SDS011;5597;47.588;9.642;2022-10-31T04:07:16;7.77;;;7.03;;
11086;SDS011;5597;47.588;9.642;2022-10-31T04:09:44;7.97;;;6.60;;
11086;SDS011;5597;47.588;9.642;2022-10-31T04:12:13;7.20;;;6.50;;
11086;SDS011;5597;47.588;9.642;2022-10-31T04:14:41;7.10;;;6.40;;
11086;SDS011;5597;47.588;9.642;2022-10-31T04:17:10;7.37;;;6.63;;
11086;SDS011;5597;47.588;9.642;2022-10-31T04:19:38;7.90;;;7.10;;
11086;SDS011;5597;47.588;9.642;2022-10-31T04:22:04;7.63;;;6.93;;
11086;SDS011;5597;47.588;9.642;2022-10-31T04:24:30;7.83;;;7.13;;
11086;SDS011;5597;47.588;9.642;2022-10-31T04:26:55;8.40;;;7.40;;
11086;SDS011;5597;47.588;9.642;2022-10-31T04:29:21;7.57;;;6.87;;
11086;SDS011;5597;47.588;9.642;2022-10-31T04:31:46;7.50;;;6.73;;
11086;SDS011;5597;47.588;9.642;2022-10-31T04:34:12;7.57;;;6.87;;
11086;SDS011;5597;47.588;9.642;2022-10-31T04:36:38;8.23;;;7.43;;
11086;SDS011;5597;47.588;9.642;2022-10-31T04:39:03;7.77;;;6.97;;
11086;SDS011;5597;47.588;9.642;2022-10-31T04:41:29;8.87;;;7.97;;
11086;SDS011;5597;47.588;9.642;2022-10-31T04:43:54;8.37;;;7.50;;
11086;SDS011;5597;47.588;9.642;2022-10-31T04:46:20;8.47;;;7.67;;
11086;SDS011;5597;47.588;9.642;2022-10-31T04:48:46;7.63;;;6.83;;
11086;SDS011;5597;47.588;9.642;2022-10-31T04:51:11;8.93;;;7.60;;
11086;SDS011;5597;47.588;9.642;2022-10-31T04:53:37;7.57;;;6.77;;
11086;SDS011;5597;47.588;9.642;2022-10-31T04:56:02;8.20;;;7.40;;
11086;SDS011;5597;47.588;9.642;2022-10-31T04:58:28;8.00;;;7.20;;
11086;SDS011;5597;47.588;9.642;2022-10-31T05:00:54;7.17;;;6.47;;
11086;SDS011;5597;47.588;9.642;2022-10-31T05:03:20;8.07;;;7.27;;
11086;SDS011;5597;47.588;9.642;2022-10-31T05:05:46;7.83;;;7.03;;
11086;SDS011;5597;47.588;9.642;2022-10-31T05:08:12;7.70;;;6.93;;
11086;SDS011;5597;47.588;9.642;2022-10-31T05:10:38;7.30;;;6.60;;
11086;SDS011;5597;47.588;9.642;2022-10-31T05:13:04;7.57;;;6.87;;
11086;SDS011;5597;47.588;9.642;2022-10-31T05:15:30;6.73;;;6.03;;
11086;SDS011;5597;47.588;9.642;2022-10-31T05:17:56;7.17;;;5.87;;
11086;SDS011;5597;47.588;9.642;2022-10-31T05:20:23;6.70;;;6.00;;
11086;SDS011;5597;47.588;9.642;2022-10-31T05:22:51;6.40;;;5.80;;
11086;SDS011;5597;47.588;9.642;2022-10-31T05:25:19;7.63;;;6.60;;
11086;SDS011;5597;47.588;9.642;2022-10-31T05:27:47;5.90;;;5.23;;
11086;SDS011;5597;47.588;9.642;2022-10-31T05:30:16;6.47;;;5.73;;
11086;SDS011;5597;47.588;9.642;2022-10-31T05:32:44;5.83;;;5.30;;
11086;SDS011;5597;47.588;9.642;2022-10-31T05:35:14;6.27;;;4.70;;
11086;SDS011;5597;47.588;9.642;2022-10-31T05:37:41;7.50;;;6.23;;
11086;SDS011;5597;47.588;9.642;2022-10-31T05:40:08;6.53;;;5.93;;
11086;SDS011;5597;47.588;9.642;2022-10-31T05:42:35;6.57;;;5.97;;
11086;SDS011;5597;47.588;9.642;2022-10-31T05:45:02;6.10;;;5.60;;
11086;SDS011;5597;47.588;9.642;2022-10-31T05:47:28;6.33;;;5.73;;
11086;SDS011;5597;47.588;9.642;2022-10-31T05:49:54;7.10;;;5.90;;
11086;SDS011;5597;47.588;9.642;2022-10-31T05:52:19;6.17;;;5.57;;
11086;SDS011;5597;47.588;9.642;2022-10-31T05:54:45;6.60;;;6.00;;
11086;SDS011;5597;47.588;9.642;2022-10-31T05:57:10;6.60;;;6.00;;
11086;SDS011;5597;47.588;9.642;2022-10-31T05:59:36;6.70;;;6.03;;
11086;SDS011;5597;47.588;9.642;2022-10-31T06:02:01;6.30;;;5.70;;
11086;SDS011;5597;47.588;9.642;2022-10-31T06:04:27;7.17;;;6.47;;
11086;SDS011;5597;47.588;9.642;2022-10-31T06:06:53;6.50;;;5.90;;
11086;SDS011;5597;47.588;9.642;2022-10-31T06:09:18;5.97;;;5.37;;
11086;SDS011;5597;47.588;9.642;2022-10-31T06:11:44;5.63;;;5.10;;
11086;SDS011;5597;47.588;9.642;2022-10-31T06:14:09;6.43;;;5.83;;
11086;SDS011;5597;47.588;9.642;2022-10-31T06:16:35;6.50;;;5.93;;
11086;SDS011;5597;47.588;9.642;2022-10-31T06:19:00;6.63;;;6.03;;
11086;SDS011;5597;47.588;9.642;2022-10-31T06:21:26;6.70;;;5.47;;
11086;SDS011;5597;47.588;9.642;2022-10-31T06:23:52;6.40;;;5.73;;
11086;SDS011;5597;47.588;9.642;2022-10-31T06:26:18;5.57;;;5.03;;
11086;SDS011;5597;47.588;9.642;2022-10-31T06:28:43;6.37;;;5.77;;
11086;SDS011;5597;47.588;9.642;2022-10-31T06:31:09;8.00;;;6.80;;
11086;SDS011;5597;47.588;9.642;2022-10-31T06:33:35;7.83;;;7.03;;
11086;SDS011;5597;47.588;9.642;2022-10-31T06:36:01;9.83;;;8.90;;
11086;SDS011;5597;47.588;9.642;2022-10-31T06:38:27;8.70;;;7.90;;
11086;SDS011;5597;47.588;9.642;2022-10-31T06:40:53;8.50;;;7.57;;
11086;SDS011;5597;47.588;9.642;2022-10-31T06:43:19;8.90;;;7.83;;
11086;SDS011;5597;47.588;9.642;2022-10-31T06:45:45;8.00;;;7.20;;
11086;SDS011;5597;47.588;9.642;2022-10-31T06:48:11;9.70;;;8.80;;
11086;SDS011;5597;47.588;9.642;2022-10-31T06:50:36;9.07;;;8.23;;
11086;SDS011;5597;47.588;9.642;2022-10-31T06:53:02;8.57;;;7.77;;
11086;SDS011;5597;47.588;9.642;2022-10-31T06:55:28;11.17;;;10.13;;
11086;SDS011;5597;47.588;9.642;2022-10-31T06:58:00;9.87;;;8.87;;
11086;SDS011;5597;47.588;9.642;2022-10-31T07:00:26;11.70;;;10.60;;
11086;SDS011;5597;47.588;9.642;2022-10-31T07:02:58;11.27;;;10.27;;
11086;SDS011;5597;47.588;9.642;2022-10-31T07:05:25;10.70;;;9.80;;
11086;SDS011;5597;47.588;9.642;2022-10-31T07:07:51;9.67;;;8.77;;
11086;SDS011;5597;47.588;9.642;2022-10-31T07:10:21;9.73;;;8.83;;
11086;SDS011;5597;47.588;9.642;2022-10-31T07:12:48;8.90;;;8.10;;
11086;SDS011;5597;47.588;9.642;2022-10-31T07:15:13;8.90;;;8.10;;
11086;SDS011;5597;47.588;9.642;2022-10-31T07:17:39;9.10;;;8.20;;
11086;SDS011;5597;47.588;9.642;2022-10-31T07:20:04;9.87;;;8.97;;
11086;SDS011;5597;47.588;9.642;2022-10-31T07:22:36;9.30;;;8.50;;
11086;SDS011;5597;47.588;9.642;2022-10-31T07:25:02;9.13;;;8.30;;
11086;SDS011;5597;47.588;9.642;2022-10-31T07:27:28;9.50;;;8.60;;
11086;SDS011;5597;47.588;9.642;2022-10-31T07:30:00;10.90;;;9.90;;
11086;SDS011;5597;47.588;9.642;2022-10-31T07:32:25;11.57;;;10.47;;
11086;SDS011;5597;47.588;9.642;2022-10-31T07:34:51;11.67;;;10.67;;
11086;SDS011;5597;47.588;9.642;2022-10-31T07:37:16;11.83;;;10.73;;
11086;SDS011;5597;47.588;9.642;2022-10-31T07:39:42;11.90;;;10.90;;
11086;SDS011;5597;47.588;9.642;2022-10-31T07:42:07;11.23;;;10.13;;
11086;SDS011;5597;47.588;9.642;2022-10-31T07:44:33;13.87;;;10.80;;
11086;SDS011;5597;47.588;9.642;2022-10-31T07:46:58;14.67;;;12.53;;
11086;SDS011;5597;47.588;9.642;2022-10-31T07:49:24;12.40;;;11.17;;
11086;SDS011;5597;47.588;9.642;2022-10-31T07:51:50;11.20;;;10.10;;
11086;SDS011;5597;47.588;9.642;2022-10-31T07:54:16;11.50;;;10.40;;
11086;SDS011;5597;47.588;9.642;2022-10-31T07:56:41;10.80;;;9.70;;
11086;SDS011;5597;47.588;9.642;2022-10-31T07:59:07;11.93;;;10.83;;
11086;SDS011;5597;47.588;9.642;2022-10-31T08:01:32;10.87;;;9.87;;
11086;SDS011;5597;47.588;9.642;2022-10-31T08:03:58;11.27;;;10.13;;
11086;SDS011;5597;47.588;9.642;2022-10-31T08:06:23;10.63;;;9.63;;
11086;SDS011;5597;47.588;9.642;2022-10-31T08:08:49;12.33;;;11.13;;
11086;SDS011;5597;47.588;9.642;2022-10-31T08:11:14;11.57;;;10.57;;
11086;SDS011;5597;47.588;9.642;2022-10-31T08:13:40;12.80;;;11.57;;
11086;SDS011;5597;47.588;9.642;2022-10-31T08:16:07;10.73;;;9.73;;
11086;SDS011;5597;47.588;9.642;2022-10-31T08:18:33;10.93;;;9.93;;
11086;SDS011;5597;47.588;9.642;2022-10-31T08:20:58;11.33;;;10.20;;
11086;SDS011;5597;47.588;9.642;2022-10-31T08:23:24;10.83;;;9.93;;
11086;SDS011;5597;47.588;9.642;2022-10-31T08:25:49;10.13;;;9.20;;
11086;SDS011;5597;47.588;9.642;2022-10-31T08:28:15;9.57;;;8.67;;
11086;SDS011;5597;47.588;9.642;2022-10-31T08:30:41;11.50;;;10.40;;
11086;SDS011;5597;47.588;9.642;2022-10-31T08:33:14;11.30;;;10.20;;
11086;SDS011;5597;47.588;9.642;2022-10-31T08:35:42;11.47;;;10.37;;
11086;SDS011;5597;47.588;9.642;2022-10-31T08:38:09;11.93;;;10.73;;
11086;SDS011;5597;47.588;9.642;2022-10-31T08:40:36;11.67;;;10.53;;
11086;SDS011;5597;47.588;9.642;2022-10-31T08:43:19;11.27;;;10.03;;
11086;SDS011;5597;47.588;9.642;2022-10-31T08:45:47;12.30;;;11.10;;
11086;SDS011;5597;47.588;9.642;2022-10-31T08:48:14;11.17;;;10.03;;
11086;SDS011;5597;47.588;9.642;2022-10-31T08:50:42;12.43;;;10.93;;
11086;SDS011;5597;47.588;9.642;2022-10-31T08:55:38;13.60;;;12.23;;
11086;SDS011;5597;47.588;9.642;2022-10-31T08:58:06;11.30;;;10.20;;
11086;SDS011;5597;47.588;9.642;2022-10-31T09:00:35;11.37;;;10.20;;
11086;SDS011;5597;47.588;9.642;2022-10-31T09:03:05;10.53;;;9.53;;
11086;SDS011;5597;47.588;9.642;2022-10-31T09:05:32;12.07;;;10.87;;
11086;SDS011;5597;47.588;9.642;2022-10-31T09:07:59;12.20;;;10.83;;
11086;SDS011;5597;47.588;9.642;2022-10-31T09:10:26;10.33;;;9.37;;
11086;SDS011;5597;47.588;9.642;2022-10-31T09:13:06;10.27;;;9.23;;
11086;SDS011;5597;47.588;9.642;2022-10-31T09:15:35;11.87;;;10.23;;
11086;SDS011;5597;47.588;9.642;2022-10-31T09:18:03;10.73;;;9.73;;
11086;SDS011;5597;47.588;9.642;2022-10-31T09:20:30;11.17;;;10.13;;
11086;SDS011;5597;47.588;9.642;2022-10-31T09:22:59;11.27;;;10.10;;
11086;SDS011;5597;47.588;9.642;2022-10-31T09:25:30;11.07;;;9.97;;
11086;SDS011;5597;47.588;9.642;2022-10-31T09:27:57;9.93;;;8.93;;
11086;SDS011;5597;47.588;9.642;2022-10-31T09:30:24;10.37;;;9.33;;
11086;SDS011;5597;47.588;9.642;2022-10-31T09:32:57;11.10;;;10.00;;
11086;SDS011;5597;47.588;9.642;2022-10-31T09:35:30;10.13;;;9.13;;
11086;SDS011;5597;47.588;9.642;2022-10-31T09:37:56;10.67;;;8.90;;
11086;SDS011;5597;47.588;9.642;2022-10-31T09:40:39;10.93;;;9.83;;
11086;SDS011;5597;47.588;9.642;2022-10-31T09:43:28;9.30;;;8.40;;
11086;SDS011;5597;47.588;9.642;2022-10-31T09:48:49;9.80;;;8.83;;
11086;SDS011;5597;47.588;9.642;2022-10-31T09:51:18;10.27;;;9.27;;
11086;SDS011;5597;47.588;9.642;2022-10-31T09:53:54;14.43;;;12.43;;
11086;SDS011;5597;47.588;9.642;2022-10-31T09:56:31;11.97;;;10.67;;
11086;SDS011;5597;47.588;9.642;2022-10-31T09:58:58;12.03;;;10.83;;
11086;SDS011;5597;47.588;9.642;2022-10-31T10:07:08;14.13;;;12.03;;
11086;SDS011;5597;47.588;9.642;2022-10-31T10:09:44;11.93;;;10.77;;
11086;SDS011;5597;47.588;9.642;2022-10-31T10:12:25;12.63;;;11.33;;
11086;SDS011;5597;47.588;9.642;2022-10-31T10:15:00;13.83;;;12.43;;
11086;SDS011;5597;47.588;9.642;2022-10-31T10:17:55;12.60;;;11.30;;
11086;SDS011;5597;47.588;9.642;2022-10-31T10:26:01;12.80;;;11.30;;
11086;SDS011;5597;47.588;9.642;2022-10-31T10:28:39;15.97;;;13.97;;
11086;SDS011;5597;47.588;9.642;2022-10-31T10:31:15;14.40;;;12.90;;
11086;SDS011;5597;47.588;9.642;2022-10-31T10:33:46;11.93;;;10.73;;
11086;SDS011;5597;47.588;9.642;2022-10-31T10:36:26;12.43;;;11.13;;
11086;SDS011;5597;47.588;9.642;2022-10-31T10:39:10;13.10;;;11.80;;
11086;SDS011;5597;47.588;9.642;2022-10-31T10:41:41;12.27;;;10.97;;
11086;SDS011;5597;47.588;9.642;2022-10-31T10:44:11;12.40;;;11.10;;
11086;SDS011;5597;47.588;9.642;2022-10-31T10:46:41;12.53;;;11.33;;
11086;SDS011;5597;47.588;9.642;2022-10-31T10:49:34;11.87;;;10.60;;
11086;SDS011;5597;47.588;9.642;2022-10-31T10:52:17;12.30;;;11.10;;
11086;SDS011;5597;47.588;9.642;2022-10-31T10:57:50;11.03;;;9.93;;
11086;SDS011;5597;47.588;9.642;2022-10-31T11:00:25;10.40;;;9.27;;
11086;SDS011;5597;47.588;9.642;2022-10-31T11:03:00;12.00;;;9.50;;
11086;SDS011;5597;47.588;9.642;2022-10-31T11:05:39;12.70;;;10.17;;
11086;SDS011;5597;47.588;9.642;2022-10-31T11:08:49;10.37;;;9.37;;
11086;SDS011;5597;47.588;9.642;2022-10-31T11:11:13;10.57;;;9.47;;
11086;SDS011;5597;47.588;9.642;2022-10-31T11:13:52;11.17;;;10.00;;
11086;SDS011;5597;47.588;9.642;2022-10-31T11:16:40;11.03;;;9.70;;
11086;SDS011;5597;47.588;9.642;2022-10-31T11:19:13;11.77;;;10.67;;
11086;SDS011;5597;47.588;9.642;2022-10-31T11:21:43;10.37;;;9.37;;
11086;SDS011;5597;47.588;9.642;2022-10-31T11:26:36;10.93;;;9.83;;
11086;SDS011;5597;47.588;9.642;2022-10-31T11:29:03;10.83;;;9.73;;
11086;SDS011;5597;47.588;9.642;2022-10-31T11:31:30;10.77;;;9.63;;
11086;SDS011;5597;47.588;9.642;2022-10-31T11:34:00;10.77;;;9.67;;
11086;SDS011;5597;47.588;9.642;2022-10-31T11:36:31;10.93;;;9.83;;
11086;SDS011;5597;47.588;9.642;2022-10-31T11:39:01;10.63;;;8.83;;
11086;SDS011;5597;47.588;9.642;2022-10-31T11:41:30;11.50;;;10.40;;
11086;SDS011;5597;47.588;9.642;2022-10-31T11:43:59;12.70;;;10.87;;
11086;SDS011;5597;47.588;9.642;2022-10-31T11:46:44;11.00;;;9.83;;
11086;SDS011;5597;47.588;9.642;2022-10-31T11:49:25;9.77;;;8.77;;
11086;SDS011;5597;47.588;9.642;2022-10-31T11:51:54;9.70;;;8.77;;
11086;SDS011;5597;47.588;9.642;2022-10-31T11:54:23;10.47;;;8.73;;
11086;SDS011;5597;47.588;9.642;2022-10-31T11:56:52;12.07;;;9.13;;
11086;SDS011;5597;47.588;9.642;2022-10-31T11:59:21;11.13;;;10.03;;
11086;SDS011;5597;47.588;9.642;2022-10-31T12:01:52;12.93;;;11.23;;
11086;SDS011;5597;47.588;9.642;2022-10-31T12:04:22;11.40;;;10.17;;
11086;SDS011;5597;47.588;9.642;2022-10-31T12:06:56;11.60;;;10.40;;
11086;SDS011;5597;47.588;9.642;2022-10-31T12:09:23;12.27;;;10.97;;
11086;SDS011;5597;47.588;9.642;2022-10-31T12:12:01;10.63;;;9.63;;
11086;SDS011;5597;47.588;9.642;2022-10-31T12:23:03;12.50;;;11.17;;
11086;SDS011;5597;47.588;9.642;2022-10-31T12:25:42;11.43;;;9.90;;
11086;SDS011;5597;47.588;9.642;2022-10-31T12:28:28;13.53;;;12.13;;
11086;SDS011;5597;47.588;9.642;2022-10-31T12:31:03;14.20;;;12.80;;
11086;SDS011;5597;47.588;9.642;2022-10-31T12:33:43;12.27;;;10.90;;
11086;SDS011;5597;47.588;9.642;2022-10-31T12:36:21;13.77;;;12.37;;
11086;SDS011;5597;47.588;9.642;2022-10-31T12:44:39;12.97;;;11.20;;
11086;SDS011;5597;47.588;9.642;2022-10-31T12:47:46;11.27;;;10.17;;
11086;SDS011;5597;47.588;9.642;2022-10-31T12:50:28;11.63;;;10.53;;
11086;SDS011;5597;47.588;9.642;2022-10-31T12:53:11;12.23;;;10.43;;
11086;SDS011;5597;47.588;9.642;2022-10-31T12:56:00;11.10;;;10.00;;
11086;SDS011;5597;47.588;9.642;2022-10-31T12:58:33;11.37;;;10.20;;
11086;SDS011;5597;47.588;9.642;2022-10-31T13:06:32;10.97;;;9.70;;
11086;SDS011;5597;47.588;9.642;2022-10-31T13:09:04;11.37;;;9.87;;
11086;SDS011;5597;47.588;9.642;2022-10-31T13:11:35;11.00;;;9.90;;
11086;SDS011;5597;47.588;9.642;2022-10-31T13:14:10;11.77;;;10.57;;
11086;SDS011;5597;47.588;9.642;2022-10-31T13:16:46;12.23;;;11.00;;
11086;SDS011;5597;47.588;9.642;2022-10-31T13:24:50;12.13;;;10.87;;
11086;SDS011;5597;47.588;9.642;2022-10-31T13:27:28;13.73;;;12.30;;
11086;SDS011;5597;47.588;9.642;2022-10-31T13:32:30;11.97;;;10.67;;
11086;SDS011;5597;47.588;9.642;2022-10-31T13:35:26;10.03;;;9.10;;
11086;SDS011;5597;47.588;9.642;2022-10-31T13:38:19;12.47;;;11.17;;
11086;SDS011;5597;47.588;9.642;2022-10-31T13:46:42;11.53;;;10.00;;
11086;SDS011;5597;47.588;9.642;2022-10-31T13:52:04;12.87;;;10.53;;
11086;SDS011;5597;47.588;9.642;2022-10-31T13:54:46;11.53;;;10.33;;
11086;SDS011;5597;47.588;9.642;2022-10-31T13:59:45;12.20;;;9.33;;
11086;SDS011;5597;47.588;9.642;2022-10-31T14:02:23;10.27;;;8.83;;
11086;SDS011;5597;47.588;9.642;2022-10-31T14:04:59;10.90;;;9.70;;
11086;SDS011;5597;47.588;9.642;2022-10-31T14:07:30;9.87;;;8.70;;
11086;SDS011;5597;47.588;9.642;2022-10-31T14:10:19;10.67;;;9.23;;
11086;SDS011;5597;47.588;9.642;2022-10-31T14:15:42;8.47;;;7.67;;
11086;SDS011;5597;47.588;9.642;2022-10-31T14:18:33;8.73;;;7.73;;
11086;SDS011;5597;47.588;9.642;2022-10-31T14:21:01;10.87;;;9.67;;
11086;SDS011;5597;47.588;9.642;2022-10-31T14:23:58;9.87;;;8.87;;
11086;SDS011;5597;47.588;9.642;2022-10-31T14:28:57;8.97;;;8.07;;
11086;SDS011;5597;47.588;9.642;2022-10-31T14:33:50;9.27;;;8.07;;
11086;SDS011;5597;47.588;9.642;2022-10-31T14:39:15;9.60;;;8.60;;
11086;SDS011;5597;47.588;9.642;2022-10-31T14:47:22;9.17;;;8.23;;
11086;SDS011;5597;47.588;9.642;2022-10-31T14:50:00;9.30;;;7.70;;
11086;SDS011;5597;47.588;9.642;2022-10-31T14:52:29;8.33;;;7.60;;
11086;SDS011;5597;47.588;9.642;2022-10-31T14:54:56;8.23;;;7.43;;
11086;SDS011;5597;47.588;9.642;2022-10-31T14:59:59;11.80;;;10.70;;
11086;SDS011;5597;47.588;9.642;2022-10-31T15:02:42;10.07;;;9.17;;
11086;SDS011;5597;47.588;9.642;2022-10-31T15:05:16;10.00;;;9.10;;
11086;SDS011;5597;47.588;9.642;2022-10-31T15:07:52;10.30;;;9.40;;
11086;SDS011;5597;47.588;9.642;2022-10-31T15:10:29;13.57;;;12.17;;
11086;SDS011;5597;47.588;9.642;2022-10-31T15:13:07;11.10;;;10.00;;
11086;SDS011;5597;47.588;9.642;2022-10-31T15:15:35;12.63;;;11.30;;
11086;SDS011;5597;47.588;9.642;2022-10-31T15:18:03;11.53;;;10.43;;
11086;SDS011;5597;47.588;9.642;2022-10-31T15:20:30;10.83;;;9.83;;
11086;SDS011;5597;47.588;9.642;2022-10-31T15:23:02;10.20;;;9.20;;
11086;SDS011;5597;47.588;9.642;2022-10-31T15:25:30;9.47;;;8.57;;
11086;SDS011;5597;47.588;9.642;2022-10-31T15:27:59;10.17;;;9.17;;
11086;SDS011;5597;47.588;9.642;2022-10-31T15:30:26;10.40;;;9.30;;
11086;SDS011;5597;47.588;9.642;2022-10-31T15:32:53;9.87;;;8.87;;
11086;SDS011;5597;47.588;9.642;2022-10-31T15:35:20;10.23;;;9.10;;
11086;SDS011;5597;47.588;9.642;2022-10-31T15:37:54;10.23;;;9.20;;
11086;SDS011;5597;47.588;9.642;2022-10-31T15:40:22;10.63;;;9.53;;
11086;SDS011;5597;47.588;9.642;2022-10-31T15:42:55;9.53;;;8.57;;
11086;SDS011;5597;47.588;9.642;2022-10-31T15:45:27;9.53;;;8.40;;
11086;SDS011;5597;47.588;9.642;2022-10-31T15:47:59;9.27;;;8.37;;
11086;SDS011;5597;47.588;9.642;2022-10-31T15:52:57;11.67;;;10.53;;
11086;SDS011;5597;47.588;9.642;2022-10-31T15:55:25;12.50;;;11.20;;
11086;SDS011;5597;47.588;9.642;2022-10-31T15:57:54;11.83;;;10.73;;
11086;SDS011;5597;47.588;9.642;2022-10-31T16:00:33;11.03;;;9.93;;
11086;SDS011;5597;47.588;9.642;2022-10-31T16:08:23;12.60;;;9.90;;
11086;SDS011;5597;47.588;9.642;2022-10-31T16:13:36;11.80;;;10.70;;
11086;SDS011;5597;47.588;9.642;2022-10-31T16:16:04;11.30;;;10.20;;
11086;SDS011;5597;47.588;9.642;2022-10-31T16:18:37;11.03;;;9.83;;
11086;SDS011;5597;47.588;9.642;2022-10-31T16:21:05;10.27;;;9.27;;
11086;SDS011;5597;47.588;9.642;2022-10-31T16:23:32;10.47;;;9.47;;
11086;SDS011;5597;47.588;9.642;2022-10-31T16:25:58;10.50;;;9.23;;
11086;SDS011;5597;47.588;9.642;2022-10-31T16:28:25;9.37;;;8.47;;
11086;SDS011;5597;47.588;9.642;2022-10-31T16:30:52;9.83;;;8.83;;
11086;SDS011;5597;47.588;9.642;2022-10-31T16:33:25;10.97;;;9.70;;
11086;SDS011;5597;47.588;9.642;2022-10-31T16:36:44;10.03;;;9.00;;
11086;SDS011;5597;47.588;9.642;2022-10-31T16:38:50;11.50;;;10.40;;
11086;SDS011;5597;47.588;9.642;2022-10-31T16:41:16;12.87;;;11.60;;
11086;SDS011;5597;47.588;9.642;2022-10-31T16:43:42;11.50;;;10.40;;
11086;SDS011;5597;47.588;9.642;2022-10-31T16:46:08;10.47;;;9.47;;
11086;SDS011;5597;47.588;9.642;2022-10-31T16:48:39;9.60;;;8.70;;
11086;SDS011;5597;47.588;9.642;2022-10-31T16:51:06;8.87;;;8.00;;
11086;SDS011;5597;47.588;9.642;2022-10-31T16:53:32;10.97;;;9.87;;
11086;SDS011;5597;47.588;9.642;2022-10-31T16:55:58;11.00;;;9.90;;
11086;SDS011;5597;47.588;9.642;2022-10-31T16:58:27;12.73;;;11.47;;
11086;SDS011;5597;47.588;9.642;2022-10-31T17:00:54;12.40;;;11.20;;
11086;SDS011;5597;47.588;9.642;2022-10-31T17:03:21;12.43;;;10.07;;